Time;durP1;ratioP1;P1;durP2;ratioP2;P2;SDS_P1;SDS_P2;PMS_P1;PMS_P2;Temp;Humidity;BMP_temperature;BMP_pressure;BME280_temperature;BME280_humidity;BME280_pressure;Samples;Min_cycle;Max_cycle;Signal;HPM_P1;HPM_P2
2022/03/26 00:00:00;;;;;;;378.57;129.80;;;;;;;9.08;53.09;100675.31;344013;28;829;-68
2022/03/26 00:00:11;;;;;;;377.08;133.68;;;;;;;9.03;53.32;100682.34;345079;28;1047;-68
2022/03/26 00:00:22;;;;;;;378.08;138.38;;;;;;;9.04;53.82;100678.84;345199;28;1421;-68
2022/03/26 00:00:32;;;;;;;375.33;134.57;;;;;;;9.02;53.35;100675.41;342716;28;949;-68
2022/03/26 00:00:43;;;;;;;375.33;131.63;;;;;;;9.02;53.85;100683.25;341040;29;2071;-67
2022/03/26 00:00:54;;;;;;;375.88;130.68;;;;;;;9.00;53.55;100678.91;341043;28;1904;-68
2022/03/26 00:01:04;;;;;;;379.80;133.80;;;;;;;9.00;53.58;100680.66;341354;29;964;-68
2022/03/26 00:01:15;;;;;;;382.95;136.02;;;;;;;8.98;53.92;100683.28;345602;28;1935;-68
2022/03/26 00:01:25;;;;;;;383.87;137.43;;;;;;;8.93;53.91;100674.69;344072;28;1797;-68
2022/03/26 00:01:36;;;;;;;380.10;132.93;;;;;;;8.93;53.69;100681.66;344029;28;921;-67
2022/03/26 00:01:46;;;;;;;375.53;128.33;;;;;;;8.94;54.10;100681.63;344083;28;1069;-68
2022/03/26 00:01:56;;;;;;;374.70;123.47;;;;;;;8.94;53.38;100673.78;342640;28;1105;-68
2022/03/26 00:02:07;;;;;;;377.63;124.50;;;;;;;8.96;53.38;100679.84;342625;28;890;-68
2022/03/26 00:02:17;;;;;;;377.15;125.43;;;;;;;8.97;54.31;100678.97;341622;28;930;-67
2022/03/26 00:02:28;;;;;;;375.80;125.00;;;;;;;8.98;53.55;100680.69;343929;28;1178;-68
2022/03/26 00:02:38;;;;;;;375.00;124.78;;;;;;;8.98;53.69;100680.69;345164;28;1434;-68
2022/03/26 00:02:50;;;;;;;378.27;127.55;;;;;;;8.95;54.08;100675.50;342550;28;1331;-68
2022/03/26 00:03:00;;;;;;;381.20;130.48;;;;;;;8.92;53.90;100675.56;342703;28;878;-68
2022/03/26 00:03:11;;;;;;;382.13;134.97;;;;;;;8.93;54.16;100682.50;343601;28;1943;-67
2022/03/26 00:03:21;;;;;;;381.02;136.50;;;;;;;8.91;54.05;100673.84;342699;28;983;-67
2022/03/26 00:03:32;;;;;;;384.38;142.63;;;;;;;8.92;53.88;100669.47;342412;28;2590;-67
2022/03/26 00:03:42;;;;;;;382.47;137.27;;;;;;;8.91;54.13;100678.19;341073;29;1646;-68
2022/03/26 00:03:53;;;;;;;383.33;133.60;;;;;;;8.91;54.46;100678.19;341335;29;1239;-68
2022/03/26 00:04:03;;;;;;;378.40;125.97;;;;;;;8.90;54.34;100669.50;342620;28;1150;-68
2022/03/26 00:04:13;;;;;;;378.98;126.15;;;;;;;8.94;54.38;100676.41;342610;28;862;-69
2022/03/26 00:04:24;;;;;;;377.37;127.50;;;;;;;8.95;54.27;100674.66;342770;28;878;-69
2022/03/26 00:04:34;;;;;;;380.10;129.07;;;;;;;8.91;53.95;100679.06;341219;29;1089;-67
2022/03/26 00:04:45;;;;;;;386.63;139.03;;;;;;;8.87;54.26;100671.31;343749;28;1994;-68
2022/03/26 00:04:55;;;;;;;392.73;145.35;;;;;;;8.86;54.29;100675.66;343874;28;1392;-67
2022/03/26 00:05:06;;;;;;;397.03;152.80;;;;;;;8.87;54.53;100676.53;343903;28;1197;-67
2022/03/26 00:05:17;;;;;;;392.38;148.80;;;;;;;8.88;54.72;100670.41;343831;28;908;-68
2022/03/26 00:05:27;;;;;;;390.08;142.10;;;;;;;8.89;54.34;100675.63;345315;28;934;-68
2022/03/26 00:05:38;;;;;;;387.43;135.90;;;;;;;8.88;54.79;100671.28;344392;28;2224;-68
2022/03/26 00:05:48;;;;;;;385.73;131.33;;;;;;;8.90;54.57;100672.13;343828;28;2008;-68
2022/03/26 00:05:59;;;;;;;385.87;135.33;;;;;;;8.89;54.48;100675.63;343915;28;1345;-68
2022/03/26 00:06:09;;;;;;;384.20;135.02;;;;;;;8.89;54.54;100683.44;341322;29;928;-68
2022/03/26 00:06:19;;;;;;;387.75;137.07;;;;;;;8.90;54.42;100672.13;343833;28;1380;-68
2022/03/26 00:06:31;;;;;;;388.93;139.63;;;;;;;8.90;54.21;100677.34;343756;28;1808;-68
2022/03/26 00:06:41;;;;;;;390.92;143.20;;;;;;;8.92;54.55;100674.69;342633;28;905;-68
2022/03/26 00:06:52;;;;;;;387.07;142.13;;;;;;;8.92;54.57;100682.53;341396;29;1107;-68
2022/03/26 00:07:02;;;;;;;383.47;133.40;;;;;;;8.89;54.19;100667.78;342625;28;1352;-68
2022/03/26 00:07:13;;;;;;;380.10;127.13;;;;;;;8.88;54.45;100673.88;344392;28;1044;-68
2022/03/26 00:07:23;;;;;;;380.77;126.65;;;;;;;8.86;54.36;100670.44;341211;28;894;-68
2022/03/26 00:07:33;;;;;;;381.53;129.70;;;;;;;8.83;54.79;100678.31;341328;29;892;-68
2022/03/26 00:07:44;;;;;;;383.63;133.88;;;;;;;8.77;55.03;100673.19;343753;28;1939;-68
2022/03/26 00:07:54;;;;;;;385.10;133.17;;;;;;;8.78;55.19;100672.31;343926;28;1195;-68
2022/03/26 00:08:05;;;;;;;385.45;135.00;;;;;;;8.77;55.07;100667.97;341220;28;1720;-68
2022/03/26 00:08:15;;;;;;;380.70;129.13;;;;;;;8.78;55.34;100672.31;342588;28;1295;-68
2022/03/26 00:08:26;;;;;;;380.77;131.52;;;;;;;8.80;54.88;100674.91;344081;28;1988;-68
2022/03/26 00:08:36;;;;;;;380.43;129.50;;;;;;;8.83;54.81;100670.50;342577;28;1037;-68
2022/03/26 00:08:49;;;;;;;383.88;132.82;;;;;;;8.83;54.79;100670.50;343572;28;1787;-68
2022/03/26 00:08:59;;;;;;;385.17;130.75;;;;;;;8.85;54.67;100673.94;343801;28;1370;-68
2022/03/26 00:09:09;;;;;;;385.95;128.32;;;;;;;8.80;55.05;100667.94;344030;28;840;-68
2022/03/26 00:09:20;;;;;;;387.00;131.70;;;;;;;8.83;55.25;100680.06;342605;28;1231;-68
2022/03/26 00:09:30;;;;;;;386.00;133.95;;;;;;;8.80;54.89;100674.91;342632;28;1046;-68
2022/03/26 00:09:41;;;;;;;391.03;145.90;;;;;;;8.78;54.96;100667.09;342638;28;975;-68
2022/03/26 00:09:51;;;;;;;396.30;154.00;;;;;;;8.76;55.36;100673.22;339971;29;1899;-68
2022/03/26 00:10:03;;;;;;;402.90;161.43;;;;;;;8.73;55.03;100663.69;342543;28;849;-68
2022/03/26 00:10:14;;;;;;;401.77;157.98;;;;;;;8.74;55.33;100665.41;343069;28;1918;-68
2022/03/26 00:10:24;;;;;;;398.03;148.37;;;;;;;8.73;55.10;100668.91;343839;28;1282;-68
2022/03/26 00:10:36;;;;;;;397.67;146.70;;;;;;;8.69;55.11;100672.47;345010;28;1148;-68
2022/03/26 00:10:46;;;;;;;398.40;151.05;;;;;;;8.67;55.37;100664.66;345346;28;940;-67
2022/03/26 00:10:57;;;;;;;401.35;156.77;;;;;;;8.66;54.79;100667.31;344031;28;959;-67
2022/03/26 00:11:07;;;;;;;397.90;154.70;;;;;;;8.61;55.36;100669.13;343829;28;1469;-68
2022/03/26 00:11:18;;;;;;;396.95;153.45;;;;;;;8.61;55.36;100663.91;342555;28;877;-68
2022/03/26 00:11:28;;;;;;;393.70;148.63;;;;;;;8.58;55.66;100675.25;344765;28;1932;-68
2022/03/26 00:11:38;;;;;;;395.17;146.40;;;;;;;8.56;55.82;100671.81;343791;28;1379;-68
2022/03/26 00:11:49;;;;;;;394.97;141.50;;;;;;;8.58;55.63;100664.84;344035;28;985;-68
2022/03/26 00:11:59;;;;;;;390.98;138.75;;;;;;;8.57;55.52;100670.06;344024;28;972;-68
2022/03/26 00:12:10;;;;;;;389.73;142.23;;;;;;;8.59;55.43;100673.53;342606;28;951;-68
2022/03/26 00:12:20;;;;;;;393.40;147.35;;;;;;;8.58;55.39;100671.78;340295;28;1987;-68
2022/03/26 00:12:31;;;;;;;400.33;157.73;;;;;;;8.58;55.74;100669.19;342002;28;2274;-68
2022/03/26 00:12:41;;;;;;;401.58;163.90;;;;;;;8.58;55.66;100670.06;342489;28;1196;-68
2022/03/26 00:12:52;;;;;;;400.67;164.37;;;;;;;8.60;55.67;100672.63;344989;28;1653;-68
2022/03/26 00:13:03;;;;;;;396.73;155.30;;;;;;;8.64;55.41;100669.09;340072;29;1860;-68
2022/03/26 00:13:14;;;;;;;397.00;149.75;;;;;;;8.63;55.49;100662.16;340371;29;2225;-68
2022/03/26 00:13:24;;;;;;;397.27;150.17;;;;;;;8.63;55.77;100667.38;342585;28;1217;-68
2022/03/26 00:13:36;;;;;;;395.00;147.30;;;;;;;8.62;55.84;100669.13;343903;28;1213;-68
2022/03/26 00:13:46;;;;;;;387.90;140.90;;;;;;;8.63;55.63;100668.22;343929;28;959;-68
2022/03/26 00:13:57;;;;;;;387.83;141.90;;;;;;;8.62;55.31;100673.47;341344;29;933;-68
2022/03/26 00:14:07;;;;;;;397.15;152.52;;;;;;;8.63;55.28;100672.59;343947;28;913;-68
2022/03/26 00:14:18;;;;;;;408.10;175.10;;;;;;;8.63;55.82;100669.97;344073;28;2248;-68
2022/03/26 00:14:28;;;;;;;408.30;176.02;;;;;;;8.62;55.74;100670.88;342668;28;905;-68
2022/03/26 00:14:39;;;;;;;404.00;175.57;;;;;;;8.56;55.80;100673.56;342711;28;861;-68
2022/03/26 00:14:49;;;;;;;406.65;185.20;;;;;;;8.51;55.83;100678.00;344991;28;1890;-68
2022/03/26 00:14:59;;;;;;;409.03;194.90;;;;;;;8.45;55.88;100668.50;342597;28;918;-68
2022/03/26 00:15:10;;;;;;;419.05;222.73;;;;;;;8.37;56.29;100666.91;343491;28;1669;-68
2022/03/26 00:15:21;;;;;;;422.67;240.38;;;;;;;8.37;56.58;100672.13;342340;28;1231;-68
2022/03/26 00:15:31;;;;;;;423.43;243.70;;;;;;;8.37;56.21;100669.50;343823;28;1842;-68
2022/03/26 00:15:41;;;;;;;415.25;215.57;;;;;;;8.34;56.38;100671.28;342555;28;2317;-68
2022/03/26 00:15:52;;;;;;;398.60;160.77;;;;;;;8.38;56.34;100671.22;343937;28;983;-68
2022/03/26 00:16:02;;;;;;;395.00;149.37;;;;;;;8.38;56.32;100673.84;342453;28;2136;-68
2022/03/26 00:16:13;;;;;;;391.90;143.13;;;;;;;8.41;55.90;100660.75;342629;28;1215;-68
2022/03/26 00:16:23;;;;;;;387.60;135.97;;;;;;;8.43;56.13;100670.28;342481;28;1279;-69
2022/03/26 00:16:34;;;;;;;382.47;129.90;;;;;;;8.46;56.35;100671.97;342435;28;1983;-69
2022/03/26 00:16:44;;;;;;;377.23;127.82;;;;;;;8.44;56.27;100676.34;345086;28;2160;-69
2022/03/26 00:16:55;;;;;;;379.50;128.23;;;;;;;8.45;56.29;100670.25;345272;28;1321;-69
2022/03/26 00:17:05;;;;;;;380.35;126.82;;;;;;;8.48;55.92;100665.84;344015;28;897;-69
2022/03/26 00:17:16;;;;;;;381.77;128.30;;;;;;;8.47;56.36;100665.88;342506;28;1000;-69
2022/03/26 00:17:26;;;;;;;383.77;130.40;;;;;;;8.45;56.00;100662.44;342692;28;874;-69
2022/03/26 00:17:37;;;;;;;382.67;131.37;;;;;;;8.42;55.84;100667.69;342535;28;1312;-69
2022/03/26 00:17:47;;;;;;;381.85;130.13;;;;;;;8.37;56.18;100669.50;343884;28;1327;-69
2022/03/26 00:17:58;;;;;;;382.50;131.73;;;;;;;8.33;56.51;100663.47;343620;28;2240;-69
2022/03/26 00:18:08;;;;;;;383.77;133.23;;;;;;;8.28;56.73;100665.25;343877;28;2030;-69
2022/03/26 00:18:18;;;;;;;383.00;135.18;;;;;;;8.23;56.89;100662.69;343699;28;2386;-69
2022/03/26 00:18:29;;;;;;;379.73;133.80;;;;;;;8.27;56.97;100668.75;342303;28;2297;-69
2022/03/26 00:18:40;;;;;;;378.50;132.07;;;;;;;8.29;57.05;100667.84;342605;28;954;-69
2022/03/26 00:18:50;;;;;;;377.10;129.37;;;;;;;8.32;56.73;100667.81;343987;28;1197;-69
2022/03/26 00:19:00;;;;;;;376.17;126.07;;;;;;;8.37;56.68;100669.50;343836;28;1530;-68
2022/03/26 00:19:11;;;;;;;377.53;127.80;;;;;;;8.37;56.94;100674.72;343987;28;1160;-68
2022/03/26 00:19:21;;;;;;;379.10;131.15;;;;;;;8.36;56.58;100667.78;343955;28;906;-68
2022/03/26 00:19:32;;;;;;;384.47;136.17;;;;;;;8.33;56.59;100664.34;342618;28;865;-68
2022/03/26 00:19:42;;;;;;;382.23;133.30;;;;;;;8.31;56.71;100666.06;339940;29;1205;-68
2022/03/26 00:19:53;;;;;;;381.70;130.73;;;;;;;8.33;56.47;100661.72;340002;29;912;-68
2022/03/26 00:20:04;;;;;;;379.38;128.75;;;;;;;8.36;56.92;100668.66;339856;29;2083;-68
2022/03/26 00:20:14;;;;;;;380.00;126.60;;;;;;;8.36;56.46;100667.78;339911;29;1325;-68
2022/03/26 00:20:24;;;;;;;380.67;126.73;;;;;;;8.36;56.67;100667.78;338608;29;1019;-68
2022/03/26 00:20:35;;;;;;;381.80;128.70;;;;;;;8.35;56.67;100661.69;342386;28;1567;-68
2022/03/26 00:20:45;;;;;;;383.10;130.63;;;;;;;8.33;56.44;100658.25;343695;28;2132;-68
2022/03/26 00:20:56;;;;;;;378.48;129.35;;;;;;;8.30;57.09;100664.34;343868;28;1318;-68
2022/03/26 00:21:06;;;;;;;377.67;129.35;;;;;;;8.30;56.76;100661.72;343944;28;830;-68
2022/03/26 00:21:17;;;;;;;379.67;129.80;;;;;;;8.29;56.81;100662.63;342513;28;826;-68
2022/03/26 00:21:27;;;;;;;381.50;128.00;;;;;;;8.30;56.87;100666.09;343853;28;1335;-68
2022/03/26 00:21:38;;;;;;;378.97;125.77;;;;;;;8.30;56.37;100664.34;342530;28;967;-68
2022/03/26 00:21:48;;;;;;;376.70;123.05;;;;;;;8.34;56.55;100665.19;343712;28;2061;-67
2022/03/26 00:21:58;;;;;;;375.97;123.83;;;;;;;8.36;56.94;100662.56;343757;28;4818;-67
2022/03/26 00:22:09;;;;;;;374.67;123.35;;;;;;;8.36;56.88;100662.56;343940;28;931;-68
2022/03/26 00:22:19;;;;;;;378.23;127.53;;;;;;;8.38;56.88;100666.00;344001;28;874;-68
2022/03/26 00:22:30;;;;;;;380.83;130.60;;;;;;;8.38;56.42;100658.19;345205;28;1235;-68
2022/03/26 00:22:40;;;;;;;385.63;136.60;;;;;;;8.40;56.77;100666.84;344152;28;2095;-68
2022/03/26 00:22:51;;;;;;;383.02;135.63;;;;;;;8.41;56.26;100671.19;342620;28;2257;-67
2022/03/26 00:23:01;;;;;;;384.23;136.40;;;;;;;8.41;56.89;100663.34;343751;28;1143;-67
2022/03/26 00:23:12;;;;;;;382.95;130.93;;;;;;;8.40;56.51;100664.25;341244;29;950;-68
2022/03/26 00:23:22;;;;;;;381.73;126.47;;;;;;;8.42;56.34;100665.09;344246;28;1870;-68
2022/03/26 00:23:33;;;;;;;384.30;126.40;;;;;;;8.37;57.00;100669.50;343968;28;1444;-68
2022/03/26 00:23:43;;;;;;;381.90;128.20;;;;;;;8.33;56.71;100664.34;341352;29;848;-68
2022/03/26 00:23:53;;;;;;;382.75;131.27;;;;;;;8.29;56.57;100657.41;340021;29;1138;-68
2022/03/26 00:24:04;;;;;;;381.83;132.50;;;;;;;8.29;56.68;100669.59;343900;28;1331;-68
2022/03/26 00:24:15;;;;;;;388.05;137.25;;;;;;;8.24;57.37;100663.56;343881;28;837;-68
2022/03/26 00:24:25;;;;;;;393.80;140.10;;;;;;;8.23;57.17;100667.09;343944;28;986;-68
2022/03/26 00:24:35;;;;;;;393.57;138.20;;;;;;;8.24;56.82;100668.78;342663;28;856;-68
2022/03/26 00:24:46;;;;;;;393.08;139.20;;;;;;;8.25;57.17;100670.50;342594;28;865;-68
2022/03/26 00:24:56;;;;;;;395.00;147.93;;;;;;;8.25;56.71;100666.16;339934;29;902;-68
2022/03/26 00:25:07;;;;;;;399.67;152.55;;;;;;;8.30;56.70;100673.91;339735;29;1311;-68
2022/03/26 00:25:18;;;;;;;396.98;151.07;;;;;;;8.30;56.96;100666.94;342404;28;1702;-68
2022/03/26 00:25:28;;;;;;;402.53;163.50;;;;;;;8.30;57.01;100672.16;342577;28;837;-68
2022/03/26 00:25:39;;;;;;;409.75;179.60;;;;;;;8.30;57.02;100673.91;341819;28;2170;-68
2022/03/26 00:25:49;;;;;;;415.20;191.97;;;;;;;8.28;56.59;100667.84;342660;28;1016;-68
2022/03/26 00:26:00;;;;;;;414.42;189.80;;;;;;;8.26;57.03;100667.00;343933;28;881;-68
2022/03/26 00:26:11;;;;;;;414.23;198.23;;;;;;;8.25;57.14;100675.72;342647;28;862;-68
2022/03/26 00:26:22;;;;;;;412.25;189.05;;;;;;;8.18;57.07;100669.75;343917;28;1461;-68
2022/03/26 00:26:32;;;;;;;407.02;175.13;;;;;;;8.10;57.35;100671.59;342657;28;1011;-68
2022/03/26 00:26:43;;;;;;;407.85;171.93;;;;;;;8.06;57.66;100672.53;344393;28;1382;-68
2022/03/26 00:26:53;;;;;;;406.67;172.87;;;;;;;8.07;57.87;100669.03;343863;28;1430;-68
2022/03/26 00:27:04;;;;;;;404.05;168.98;;;;;;;8.06;57.47;100664.72;343902;28;959;-68
2022/03/26 00:27:14;;;;;;;394.70;152.43;;;;;;;8.08;57.70;100669.91;343511;28;1497;-68
2022/03/26 00:27:25;;;;;;;390.70;140.38;;;;;;;8.07;57.50;100670.78;345333;28;1063;-68
2022/03/26 00:27:35;;;;;;;395.13;149.07;;;;;;;8.09;57.72;100669.88;344379;28;2644;-68
2022/03/26 00:27:46;;;;;;;396.00;146.65;;;;;;;8.07;57.36;100670.78;343326;28;1355;-68
2022/03/26 00:27:56;;;;;;;400.97;159.57;;;;;;;8.04;57.58;100674.28;341045;29;1943;-68
2022/03/26 00:28:06;;;;;;;403.58;166.25;;;;;;;8.08;57.37;100675.97;342301;28;1339;-68
2022/03/26 00:28:17;;;;;;;401.67;160.37;;;;;;;8.07;57.33;100666.44;341223;29;1682;-68
2022/03/26 00:28:27;;;;;;;394.98;148.95;;;;;;;8.03;57.72;100669.97;345232;28;1970;-68
2022/03/26 00:28:38;;;;;;;391.30;140.83;;;;;;;8.05;57.83;100672.56;341073;28;1324;-68
2022/03/26 00:28:48;;;;;;;389.35;140.88;;;;;;;8.04;57.72;100671.69;342596;28;1366;-68
2022/03/26 00:28:59;;;;;;;389.23;138.47;;;;;;;8.04;58.09;100670.81;343937;28;1420;-68
2022/03/26 00:29:10;;;;;;;382.25;130.77;;;;;;;8.05;57.73;100678.63;343694;28;1786;-68
2022/03/26 00:29:20;;;;;;;381.58;129.48;;;;;;;8.04;57.77;100665.63;340667;29;1467;-68
2022/03/26 00:29:30;;;;;;;381.73;127.13;;;;;;;8.07;57.76;100670.78;342597;28;1037;-68
2022/03/26 00:29:41;;;;;;;382.98;129.25;;;;;;;8.04;57.68;100671.69;342585;28;1178;-68
2022/03/26 00:29:51;;;;;;;384.50;129.17;;;;;;;8.04;58.20;100670.81;341206;29;1240;-68
2022/03/26 00:30:03;;;;;;;389.70;133.35;;;;;;;8.05;57.79;100673.41;341811;28;1710;-68
2022/03/26 00:30:14;;;;;;;391.48;134.32;;;;;;;8.06;58.05;100676.88;339767;29;1299;-68
2022/03/26 00:30:24;;;;;;;386.88;130.32;;;;;;;8.03;57.81;100672.56;340159;29;2273;-68
2022/03/26 00:30:35;;;;;;;388.60;130.70;;;;;;;8.01;57.92;100667.38;343849;28;1361;-68
2022/03/26 00:30:45;;;;;;;391.73;133.40;;;;;;;8.01;58.21;100676.94;345294;28;1511;-68
2022/03/26 00:30:56;;;;;;;393.07;140.17;;;;;;;7.97;58.21;100670.91;345651;28;2068;-68
2022/03/26 00:31:06;;;;;;;391.73;140.30;;;;;;;7.99;58.12;100673.50;343979;28;2952;-68
2022/03/26 00:31:17;;;;;;;395.07;140.20;;;;;;;8.01;58.31;100677.81;343755;28;1654;-68
2022/03/26 00:31:27;;;;;;;392.88;136.23;;;;;;;8.02;58.22;100670.84;342653;28;889;-68
2022/03/26 00:31:38;;;;;;;391.57;135.63;;;;;;;8.03;58.19;100677.78;342617;28;994;-68
2022/03/26 00:31:49;;;;;;;390.13;138.07;;;;;;;8.03;58.12;100672.56;343173;28;1467;-68
2022/03/26 00:31:59;;;;;;;390.53;138.57;;;;;;;8.02;57.67;100673.44;346735;28;919;-68
2022/03/26 00:32:10;;;;;;;394.25;144.70;;;;;;;8.01;57.87;100674.34;346517;28;1235;-68
2022/03/26 00:32:20;;;;;;;391.90;142.27;;;;;;;7.96;58.14;100681.34;345145;28;1279;-68
2022/03/26 00:32:31;;;;;;;391.73;143.82;;;;;;;7.89;58.17;100674.50;342691;28;2266;-68
2022/03/26 00:32:41;;;;;;;388.83;139.97;;;;;;;7.86;58.38;100678.00;342353;28;1939;-68
2022/03/26 00:32:52;;;;;;;393.02;142.55;;;;;;;7.85;57.96;100671.06;341242;29;851;-68
2022/03/26 00:33:02;;;;;;;392.10;138.50;;;;;;;7.84;58.53;100673.69;341242;29;1300;-68
2022/03/26 00:33:12;;;;;;;391.25;140.85;;;;;;;7.79;58.44;100675.50;343756;28;944;-69
2022/03/26 00:33:23;;;;;;;388.17;141.57;;;;;;;7.81;58.19;100678.94;343893;28;1769;-69
2022/03/26 00:33:33;;;;;;;388.38;142.75;;;;;;;7.83;58.61;100677.16;342786;28;944;-69
2022/03/26 00:33:44;;;;;;;388.58;138.02;;;;;;;7.82;58.04;100675.44;342506;28;1462;-69
2022/03/26 00:33:55;;;;;;;388.67;134.33;;;;;;;7.82;58.26;100672.84;342520;28;1141;-69
2022/03/26 00:34:05;;;;;;;388.23;132.20;;;;;;;7.79;58.74;100675.50;341282;28;1335;-69
2022/03/26 00:34:16;;;;;;;387.73;134.65;;;;;;;7.79;58.55;100678.13;342564;28;1232;-69
2022/03/26 00:34:26;;;;;;;387.37;135.13;;;;;;;7.77;58.35;100678.13;343721;28;2098;-69
2022/03/26 00:34:37;;;;;;;388.80;136.60;;;;;;;7.76;58.40;100672.94;343716;28;1502;-70
2022/03/26 00:34:47;;;;;;;391.23;141.23;;;;;;;7.76;58.28;100680.75;343942;28;1334;-69
2022/03/26 00:34:58;;;;;;;391.02;142.52;;;;;;;7.70;57.99;100681.69;341239;29;876;-67
2022/03/26 00:35:09;;;;;;;392.05;141.70;;;;;;;7.71;58.45;100679.94;341962;28;2242;-67
2022/03/26 00:35:19;;;;;;;389.42;136.38;;;;;;;7.68;58.54;100673.91;344922;28;1995;-68
2022/03/26 00:35:30;;;;;;;390.80;136.20;;;;;;;7.70;58.79;100678.22;341267;29;858;-68
2022/03/26 00:35:40;;;;;;;391.02;136.15;;;;;;;7.68;58.64;100673.91;342312;28;2006;-68
2022/03/26 00:35:51;;;;;;;390.27;137.43;;;;;;;7.72;58.49;100679.06;345238;28;1295;-68
2022/03/26 00:36:01;;;;;;;389.73;137.80;;;;;;;7.74;58.68;100672.09;342516;28;1347;-68
2022/03/26 00:36:12;;;;;;;387.53;136.07;;;;;;;7.73;58.56;100676.44;342645;28;855;-68
2022/03/26 00:36:22;;;;;;;387.73;136.23;;;;;;;7.70;58.46;100673.00;341335;29;892;-68
2022/03/26 00:36:33;;;;;;;386.60;136.23;;;;;;;7.67;58.92;100677.38;341187;28;1997;-68
2022/03/26 00:36:43;;;;;;;388.63;137.50;;;;;;;7.67;58.39;100677.38;343723;28;1894;-69
2022/03/26 00:36:54;;;;;;;388.63;131.23;;;;;;;7.65;58.90;100676.53;345279;28;863;-69
2022/03/26 00:37:04;;;;;;;388.57;128.87;;;;;;;7.66;58.93;100677.41;342494;28;1220;-69
2022/03/26 00:37:16;;;;;;;390.60;128.82;;;;;;;7.67;58.62;100681.72;342519;28;2220;-69
2022/03/26 00:37:26;;;;;;;388.95;128.50;;;;;;;7.63;59.01;100680.03;343850;28;1338;-67
2022/03/26 00:37:38;;;;;;;390.67;129.93;;;;;;;7.59;58.98;100675.75;343810;28;896;-69
2022/03/26 00:37:52;;;;;;;389.65;131.13;;;;;;;7.58;58.64;100674.03;342614;28;1338;-68
2022/03/26 00:38:02;;;;;;;390.60;131.68;;;;;;;7.58;58.67;100672.28;345182;28;1470;-68
2022/03/26 00:38:13;;;;;;;386.53;129.77;;;;;;;7.60;58.63;100673.13;342568;28;1206;-68
2022/03/26 00:38:24;;;;;;;383.97;129.53;;;;;;;7.62;58.87;100678.31;342568;28;1911;-68
2022/03/26 00:38:34;;;;;;;387.25;131.70;;;;;;;7.65;58.70;100679.16;343987;28;801;-68
2022/03/26 00:38:45;;;;;;;389.63;131.50;;;;;;;7.64;58.74;100671.34;345303;28;1074;-68
2022/03/26 00:38:55;;;;;;;387.05;125.85;;;;;;;7.64;58.51;100677.41;341237;29;1493;-68
2022/03/26 00:39:06;;;;;;;387.10;128.48;;;;;;;7.65;58.71;100678.28;339844;28;1504;-67
2022/03/26 00:39:16;;;;;;;387.43;134.43;;;;;;;7.66;58.29;100678.25;342403;28;1197;-66
2022/03/26 00:39:26;;;;;;;390.40;140.98;;;;;;;7.66;58.57;100674.78;345231;28;1369;-67
2022/03/26 00:39:39;;;;;;;390.10;141.40;;;;;;;7.65;58.52;100673.94;341892;28;1682;-69
2022/03/26 00:39:49;;;;;;;387.40;135.07;;;;;;;7.64;58.56;100679.16;342620;28;996;-69
2022/03/26 00:40:00;;;;;;;387.53;130.63;;;;;;;7.63;58.60;100675.69;342661;28;1968;-69
2022/03/26 00:40:11;;;;;;;385.70;128.83;;;;;;;7.64;58.29;100674.81;343942;28;933;-68
2022/03/26 00:40:21;;;;;;;387.13;131.05;;;;;;;7.66;58.72;100678.25;343749;28;1493;-68
2022/03/26 00:40:31;;;;;;;385.57;129.23;;;;;;;7.66;58.47;100680.88;342317;28;1670;-68
2022/03/26 00:40:42;;;;;;;383.95;127.88;;;;;;;7.66;58.52;100675.66;340602;28;1819;-68
2022/03/26 00:40:52;;;;;;;386.63;129.50;;;;;;;7.64;58.28;100677.41;342376;28;1502;-68
2022/03/26 00:41:03;;;;;;;390.55;134.95;;;;;;;7.59;58.74;100673.13;342603;28;980;-68
2022/03/26 00:41:13;;;;;;;392.63;133.23;;;;;;;7.60;58.51;100686.16;342261;28;1531;-69
2022/03/26 00:41:24;;;;;;;390.98;133.02;;;;;;;7.61;58.56;100682.66;343909;28;1376;-68
2022/03/26 00:41:35;;;;;;;390.13;135.30;;;;;;;7.62;58.73;100673.09;342610;28;822;-68
2022/03/26 00:41:45;;;;;;;391.33;140.83;;;;;;;7.65;58.85;100680.88;342382;28;1874;-68
2022/03/26 00:41:56;;;;;;;390.77;137.35;;;;;;;7.66;58.44;100675.66;345170;28;1367;-68
2022/03/26 00:42:08;;;;;;;389.70;133.03;;;;;;;7.66;58.25;100682.63;340847;28;2142;-68
2022/03/26 00:42:18;;;;;;;386.02;129.30;;;;;;;7.66;58.30;100674.78;342448;28;1562;-68
2022/03/26 00:42:29;;;;;;;383.33;125.30;;;;;;;7.67;58.60;100680.00;342514;28;2289;-68
2022/03/26 00:42:39;;;;;;;385.80;127.65;;;;;;;7.67;58.63;100677.38;343112;28;2015;-68
2022/03/26 00:42:50;;;;;;;384.07;123.67;;;;;;;7.65;58.59;100673.94;343928;28;826;-68
2022/03/26 00:43:00;;;;;;;383.48;123.68;;;;;;;7.66;58.24;100685.22;345184;28;1306;-68
2022/03/26 00:43:10;;;;;;;381.93;122.13;;;;;;;7.66;58.10;100680.88;342532;28;1338;-68
2022/03/26 00:43:21;;;;;;;386.98;129.85;;;;;;;7.64;58.17;100676.56;342449;28;1728;-68
2022/03/26 00:43:31;;;;;;;388.37;131.33;;;;;;;7.62;58.46;100671.38;343961;28;913;-68
2022/03/26 00:43:42;;;;;;;389.27;129.85;;;;;;;7.59;58.21;100678.34;341185;29;939;-68
2022/03/26 00:43:52;;;;;;;384.77;126.53;;;;;;;7.56;58.58;100679.25;343917;28;1416;-68
2022/03/26 00:44:03;;;;;;;382.73;127.93;;;;;;;7.55;58.63;100672.31;341170;29;1268;-68
2022/03/26 00:44:13;;;;;;;386.05;132.32;;;;;;;7.54;58.32;100675.78;343372;28;1577;-68
2022/03/26 00:44:24;;;;;;;388.83;132.40;;;;;;;7.52;58.53;100680.16;342456;28;1244;-68
2022/03/26 00:44:38;;;;;;;388.20;133.05;;;;;;;7.49;58.55;100669.78;342533;28;948;-68
2022/03/26 00:44:48;;;;;;;389.28;130.04;;;;;;;7.50;59.01;100675.84;339942;29;856;-68
2022/03/26 00:44:58;;;;;;;389.50;128.43;;;;;;;7.47;58.84;100676.75;341123;29;1657;-68
2022/03/26 00:45:09;;;;;;;389.50;128.67;;;;;;;7.49;58.64;100677.59;342280;28;1294;-68
2022/03/26 00:45:20;;;;;;;389.35;125.63;;;;;;;7.49;58.94;100674.13;342404;28;1168;-68
2022/03/26 00:45:30;;;;;;;382.27;118.32;;;;;;;7.48;58.55;100678.47;343973;28;1156;-68
2022/03/26 00:45:42;;;;;;;379.30;116.33;;;;;;;7.46;58.99;100672.41;342348;28;2071;-68
2022/03/26 00:45:52;;;;;;;380.45;120.00;;;;;;;7.47;58.78;100679.34;342497;28;1352;-68
2022/03/26 00:46:03;;;;;;;384.70;125.67;;;;;;;7.47;59.20;100674.13;343881;28;1215;-68
2022/03/26 00:46:13;;;;;;;385.93;128.00;;;;;;;7.46;58.88;100676.75;346144;28;1821;-68
2022/03/26 00:46:24;;;;;;;387.42;132.50;;;;;;;7.45;58.94;100673.28;343501;28;1922;-68
2022/03/26 00:46:34;;;;;;;386.47;132.20;;;;;;;7.47;58.76;100674.13;342447;28;1804;-68
2022/03/26 00:46:49;;;;;;;388.05;133.00;;;;;;;7.47;59.32;100679.34;341065;28;2116;-68
2022/03/26 00:46:59;;;;;;;385.45;128.98;;;;;;;7.45;58.82;100670.69;343558;28;1502;-68
2022/03/26 00:47:09;;;;;;;383.77;126.73;;;;;;;7.45;59.06;100675.88;343596;28;1157;-68
2022/03/26 00:47:20;;;;;;;384.03;128.90;;;;;;;7.44;58.85;100673.31;342985;28;1878;-68
2022/03/26 00:47:30;;;;;;;385.67;128.40;;;;;;;7.46;58.72;100674.16;343253;28;2162;-68
2022/03/26 00:47:41;;;;;;;384.43;127.20;;;;;;;7.43;59.13;100672.44;345172;28;1184;-68
2022/03/26 00:47:51;;;;;;;387.33;129.85;;;;;;;7.44;59.09;100679.38;345352;28;1114;-68
2022/03/26 00:48:02;;;;;;;385.90;126.97;;;;;;;7.44;59.23;100673.31;343929;28;909;-68
2022/03/26 00:48:12;;;;;;;386.08;129.93;;;;;;;7.46;58.87;100671.53;343904;28;976;-68
2022/03/26 00:48:23;;;;;;;385.47;128.03;;;;;;;7.48;59.04;100678.47;344983;28;1880;-68
2022/03/26 00:48:34;;;;;;;389.38;132.65;;;;;;;7.51;59.05;100683.63;342540;28;950;-68
2022/03/26 00:48:44;;;;;;;391.23;133.50;;;;;;;7.52;58.70;100681.91;341185;28;1416;-68